Time;durP1;ratioP1;P1;durP2;ratioP2;P2;SDS_P1;SDS_P2;PMS_P1;PMS_P2;Temp;Humidity;BMP_temperature;BMP_pressure;BME280_temperature;BME280_humidity;BME280_pressure;Samples;Min_cycle;Max_cycle;Signal;HPM_P1;HPM_P2
2022/01/21 00:01:37;;;;;;;25.90;4.28;;;0.80;99.90;;;;;;5089782;28;20052;-70
2022/01/21 00:04:03;;;;;;;22.40;3.53;;;0.80;99.90;;;;;;5093309;28;20044;-70
2022/01/21 00:06:29;;;;;;;17.60;3.20;;;0.80;99.90;;;;;;5094406;28;20040;-70
2022/01/21 00:08:55;;;;;;;26.05;3.95;;;1.20;99.90;;;;;;5093001;28;20105;-70
2022/01/21 00:11:22;;;;;;;24.65;4.32;;;1.10;99.90;;;;;;5094440;28;20438;-70
2022/01/21 00:13:48;;;;;;;18.67;3.70;;;0.80;99.90;;;;;;5093978;28;20108;-70
2022/01/21 00:16:16;;;;;;;24.73;3.53;;;0.40;99.90;;;;;;5094019;28;20420;-70
2022/01/21 00:18:52;;;;;;;25.20;3.67;;;0.70;99.90;;;;;;5094039;28;20090;-70
2022/01/21 00:32:17;;;;;;;23.42;3.05;;;;;;;;;;5092492;28;20100;-70
2022/01/21 00:34:42;;;;;;;22.85;3.53;;;0.90;99.90;;;;;;5092686;28;20158;-70
2022/01/21 00:37:08;;;;;;;22.15;3.30;;;0.90;99.90;;;;;;5094447;28;20451;-70
2022/01/21 00:39:35;;;;;;;23.25;3.40;;;1.20;99.90;;;;;;5094215;28;20040;-70
2022/01/21 00:42:44;;;;;;;29.23;3.67;;;0.40;99.90;;;;;;5094130;28;20105;-69
2022/01/21 00:45:02;;;;;;;23.95;3.20;;;0.70;99.90;;;;;;5092629;28;20437;-70
2022/01/21 00:47:28;;;;;;;26.17;3.42;;;1.10;99.90;;;;;;5094003;28;20052;-70
2022/01/21 00:49:54;;;;;;;26.30;3.40;;;;;;;;;;5094463;28;20508;-70
2022/01/21 00:52:20;;;;;;;23.33;3.70;;;0.70;99.90;;;;;;5092797;28;20483;-70
2022/01/21 00:54:46;;;;;;;30.45;3.50;;;0.70;99.90;;;;;;5094004;28;20043;-70
2022/01/21 00:57:11;;;;;;;20.48;3.22;;;0.80;99.90;;;;;;5093636;28;20597;-70
2022/01/21 00:59:37;;;;;;;21.38;3.15;;;0.40;99.90;;;;;;5093312;28;20075;-70
2022/01/21 01:02:04;;;;;;;24.27;3.30;;;0.70;99.90;;;;;;5092019;28;20048;-70
2022/01/21 01:04:29;;;;;;;24.92;3.78;;;1.60;99.90;;;;;;5093406;28;20028;-70
2022/01/21 01:06:55;;;;;;;22.00;3.65;;;0.90;99.90;;;;;;5091891;28;20067;-70
2022/01/21 01:09:21;;;;;;;26.88;3.70;;;1.10;99.90;;;;;;5093130;28;20043;-70
2022/01/21 01:12:07;;;;;;;31.77;4.03;;;1.40;99.90;;;;;;5091738;28;20510;-69
2022/01/21 01:20:04;;;;;;;25.35;3.83;;;0.70;99.90;;;;;;5091824;28;20090;-69
2022/01/21 01:22:42;;;;;;;26.17;3.60;;;1.20;99.90;;;;;;5092199;28;20048;-69
2022/01/21 01:27:53;;;;;;;36.08;3.83;;;1.40;99.90;;;;;;5092998;28;20086;-69
2022/01/21 01:30:22;;;;;;;25.73;3.65;;;1.50;99.90;;;;;;5091777;28;20515;-69
2022/01/21 01:32:49;;;;;;;21.70;3.47;;;1.70;99.90;;;;;;5091832;28;20124;-69
2022/01/21 01:35:19;;;;;;;23.08;3.28;;;1.70;99.90;;;;;;5092978;28;20434;-69
2022/01/21 01:40:27;;;;;;;21.13;3.05;;;1.70;99.90;;;;;;5092786;28;20051;-69
2022/01/21 01:50:46;;;;;;;31.73;3.25;;;1.60;99.90;;;;;;5091366;28;20052;-69
2022/01/21 01:53:13;;;;;;;18.40;3.03;;;1.60;99.90;;;;;;5091231;28;20097;-69
2022/01/21 01:55:39;;;;;;;23.23;3.42;;;1.60;99.90;;;;;;5092553;28;20101;-70
2022/01/21 01:58:05;;;;;;;21.85;2.90;;;;;;;;;;5091079;28;20044;-68
2022/01/21 02:00:31;;;;;;;29.38;3.20;;;1.50;99.90;;;;;;5090939;28;20059;-69
2022/01/21 02:03:13;;;;;;;22.30;2.83;;;1.60;99.90;;;;;;5092331;28;20044;-69
2022/01/21 02:05:39;;;;;;;16.83;2.75;;;1.70;99.90;;;;;;5092431;28;20126;-69
2022/01/21 02:08:06;;;;;;;23.65;3.53;;;1.50;99.90;;;;;;5090699;28;20488;-69
2022/01/21 02:10:31;;;;;;;15.65;3.05;;;0.90;99.90;;;;;;5092177;28;20097;-69
2022/01/21 02:13:04;;;;;;;21.55;3.03;;;2.40;99.90;;;;;;5091827;28;20044;-69
2022/01/21 02:15:36;;;;;;;22.85;3.22;;;1.70;99.90;;;;;;5090552;28;20097;-68
2022/01/21 02:23:30;;;;;;;25.88;3.55;;;;;;;;;;5090400;28;20548;-69
2022/01/21 02:25:56;;;;;;;23.52;3.03;;;2.00;99.90;;;;;;5091158;28;20075;-69
2022/01/21 02:28:26;;;;;;;20.73;3.13;;;;;;;;;;5091936;28;20046;-69
2022/01/21 02:30:59;;;;;;;16.60;2.97;;;1.60;99.90;;;;;;5091609;28;20105;-69
2022/01/21 02:33:26;;;;;;;27.27;3.35;;;1.60;99.90;;;;;;5091367;28;20047;-70
2022/01/21 02:35:52;;;;;;;27.77;3.50;;;1.70;99.90;;;;;;5091501;28;20040;-70
2022/01/21 02:38:18;;;;;;;23.75;3.25;;;1.70;99.90;;;;;;5091310;28;20081;-70
2022/01/21 02:40:45;;;;;;;22.05;3.47;;;1.70;99.90;;;;;;5090310;28;20056;-69
2022/01/21 02:43:11;;;;;;;18.85;2.75;;;1.70;99.90;;;;;;5091226;28;20039;-69
2022/01/21 02:45:39;;;;;;;20.25;3.10;;;2.00;99.90;;;;;;5090026;28;20052;-69
2022/01/21 02:48:08;;;;;;;21.80;3.22;;;1.50;99.90;;;;;;5091608;28;20039;-69
2022/01/21 02:50:34;;;;;;;21.38;2.83;;;0.70;99.90;;;;;;5091278;28;20031;-69
2022/01/21 02:53:25;;;;;;;26.98;3.00;;;1.40;99.90;;;;;;5091169;28;20123;-69
2022/01/21 02:55:51;;;;;;;14.05;2.60;;;1.10;99.90;;;;;;5089754;28;20048;-69
2022/01/21 02:58:17;;;;;;;17.35;2.67;;;;;;;;;;5091126;28;20066;-69
2022/01/21 03:00:43;;;;;;;24.20;3.25;;;0.80;99.90;;;;;;5091538;28;20554;-69
2022/01/21 03:03:09;;;;;;;12.77;2.47;;;;;;;;;;5089856;28;20129;-69
2022/01/21 03:05:37;;;;;;;12.07;2.22;;;1.50;99.90;;;;;;5091013;28;20051;-69
2022/01/21 03:08:06;;;;;;;13.45;2.25;;;1.70;99.90;;;;;;5089981;28;20040;-69
2022/01/21 03:10:32;;;;;;;18.80;2.65;;;1.50;99.90;;;;;;5089693;28;20488;-69
2022/01/21 03:12:58;;;;;;;14.50;2.50;;;;;;;;;;5090832;28;20055;-69
2022/01/21 03:15:23;;;;;;;13.90;2.22;;;1.20;99.90;;;;;;5089476;28;20052;-69
2022/01/21 03:17:50;;;;;;;12.60;2.15;;;1.30;99.90;;;;;;5091052;28;20101;-69
2022/01/21 03:20:16;;;;;;;16.10;2.45;;;;;;;;;;5089749;28;20052;-69
2022/01/21 03:22:42;;;;;;;15.70;2.22;;;1.70;99.90;;;;;;5090801;28;20199;-69
2022/01/21 03:25:08;;;;;;;15.85;2.33;;;1.60;99.90;;;;;;5090784;28;20051;-69
2022/01/21 03:27:35;;;;;;;14.27;2.42;;;1.10;99.90;;;;;;5090637;28;20052;-69
2022/01/21 03:30:03;;;;;;;14.15;2.25;;;;;;;;;;5089314;28;20059;-69
2022/01/21 03:32:29;;;;;;;12.45;2.30;;;;;;;;;;5090853;28;20048;-69
2022/01/21 03:34:55;;;;;;;16.92;2.75;;;;;;;;;;5090453;28;20044;-69
2022/01/21 03:37:21;;;;;;;21.02;2.67;;;2.20;99.90;;;;;;5089085;28;20052;-69
2022/01/21 03:39:47;;;;;;;16.83;2.38;;;1.50;99.90;;;;;;5090498;28;20519;-69
2022/01/21 03:42:13;;;;;;;22.20;2.40;;;;;;;;;;5090541;28;20511;-69
2022/01/21 03:44:38;;;;;;;16.50;2.28;;;1.70;99.90;;;;;;5090700;28;20040;-69
2022/01/21 03:47:04;;;;;;;13.90;2.20;;;1.80;99.90;;;;;;5089490;28;20051;-69
2022/01/21 03:49:37;;;;;;;12.43;2.05;;;0.80;99.90;;;;;;5088892;28;20488;-69
2022/01/21 03:52:04;;;;;;;12.05;1.80;;;1.70;99.90;;;;;;5090260;28;20044;-69
2022/01/21 03:54:30;;;;;;;9.68;2.05;;;1.70;99.90;;;;;;5088897;28;20097;-69
2022/01/21 03:56:56;;;;;;;12.68;1.92;;;1.60;99.90;;;;;;5090343;28;20047;-69
2022/01/21 03:59:22;;;;;;;13.88;2.20;;;;;;;;;;5090123;28;20048;-69
2022/01/21 04:01:47;;;;;;;16.35;2.17;;;1.00;99.90;;;;;;5090466;28;20044;-69
2022/01/21 04:04:14;;;;;;;14.70;2.10;;;;;;;;;;5090093;28;20124;-69
2022/01/21 04:06:39;;;;;;;11.50;2.00;;;0.50;99.90;;;;;;5072151;28;20056;-69
2022/01/21 04:09:05;;;;;;;19.63;2.22;;;;;;;;;;5090422;28;20051;-70
2022/01/21 04:11:31;;;;;;;12.88;2.53;;;1.60;99.90;;;;;;5088885;28;20039;-69
2022/01/21 04:13:56;;;;;;;17.60;1.85;;;2.00;99.90;;;;;;5090481;28;20093;-69
2022/01/21 04:16:23;;;;;;;11.98;2.20;;;1.90;99.90;;;;;;5089448;28;20101;-69
2022/01/21 04:18:49;;;;;;;13.50;2.17;;;;;;;;;;5090493;28;20051;-69
2022/01/21 04:21:15;;;;;;;16.17;2.33;;;2.60;99.90;;;;;;5090737;28;20044;-69
2022/01/21 04:23:41;;;;;;;20.48;2.75;;;2.60;99.90;;;;;;5089287;28;20040;-69
2022/01/21 04:26:07;;;;;;;9.50;2.38;;;;;;;;;;5089398;28;20399;-69
2022/01/21 04:28:33;;;;;;;14.63;2.35;;;;;;;;;;5072731;28;20064;-69
2022/01/21 04:30:59;;;;;;;20.75;2.30;;;;;;;;;;5088902;28;20071;-69
2022/01/21 04:33:25;;;;;;;13.45;2.25;;;2.10;99.90;;;;;;5089861;28;20044;-69
2022/01/21 04:35:51;;;;;;;15.68;2.67;;;;;;;;;;5090042;28;20392;-69
2022/01/21 04:38:20;;;;;;;14.77;2.42;;;1.90;99.90;;;;;;5088672;28;20103;-69
2022/01/21 04:40:57;;;;;;;21.20;2.30;;;2.40;99.90;;;;;;5090018;28;20048;-69
2022/01/21 04:48:52;;;;;;;13.30;1.92;;;;;;;;;;5092817;28;20054;-69
2022/01/21 04:51:25;;;;;;;11.07;1.92;;;;;;;;;;5093488;28;20052;-69
2022/01/21 04:53:51;;;;;;;11.85;2.00;;;;;;;;;;5092380;28;20048;-69
2022/01/21 04:56:17;;;;;;;13.30;2.20;;;;;;;;;;5093916;28;20038;-69
2022/01/21 04:58:45;;;;;;;8.93;2.03;;;1.90;99.90;;;;;;5093502;28;20502;-69
2022/01/21 05:01:11;;;;;;;9.77;1.85;;;0.80;99.90;;;;;;5093364;28;20044;-69
2022/01/21 05:03:39;;;;;;;15.55;2.15;;;1.80;99.90;;;;;;5093383;28;20052;-69
2022/01/21 05:06:05;;;;;;;12.73;2.42;;;;;;;;;;5092304;28;20492;-69
2022/01/21 05:11:10;;;;;;;20.90;2.53;;;1.60;99.90;;;;;;5093406;28;20059;-69
2022/01/21 05:13:42;;;;;;;19.25;2.60;;;2.30;99.90;;;;;;5093339;28;20059;-69
2022/01/21 05:16:30;;;;;;;21.85;2.45;;;1.60;99.90;;;;;;5092214;28;20055;-69
2022/01/21 05:19:00;;;;;;;14.20;2.25;;;1.80;99.90;;;;;;5093320;28;20105;-69
2022/01/21 05:21:26;;;;;;;17.45;2.58;;;1.60;99.90;;;;;;5093420;28;20075;-69
2022/01/21 05:23:52;;;;;;;13.88;2.20;;;;;;;;;;5093610;28;20071;-69
2022/01/21 05:26:21;;;;;;;14.40;2.33;;;1.30;99.90;;;;;;5091703;28;20071;-68
2022/01/21 05:28:46;;;;;;;12.23;2.50;;;1.50;99.90;;;;;;5093128;28;20084;-69
2022/01/21 05:31:12;;;;;;;16.73;2.70;;;;;;;;;;5092794;28;20046;-69
2022/01/21 05:33:38;;;;;;;22.20;3.00;;;1.30;99.90;;;;;;5091432;28;20059;-68
2022/01/21 05:36:04;;;;;;;21.63;2.60;;;1.40;99.90;;;;;;5092616;28;20056;-68
2022/01/21 05:38:30;;;;;;;20.48;2.63;;;1.20;99.90;;;;;;5091469;28;20053;-68
2022/01/21 05:40:57;;;;;;;32.35;3.17;;;1.40;99.90;;;;;;5092727;28;20472;-69
2022/01/21 05:43:22;;;;;;;22.10;2.80;;;1.40;99.90;;;;;;5074657;28;20446;-69
2022/01/21 05:48:32;;;;;;;20.15;3.20;;;1.50;99.90;;;;;;5091492;28;20460;-69
2022/01/21 05:50:58;;;;;;;20.55;2.85;;;1.10;99.90;;;;;;5091755;28;20126;-69
2022/01/21 05:53:24;;;;;;;23.10;3.00;;;;;;;;;;5092558;28;20127;-69
2022/01/21 05:55:50;;;;;;;18.30;2.60;;;1.20;99.90;;;;;;5092410;28;20480;-70
2022/01/21 05:58:16;;;;;;;18.48;2.95;;;1.40;99.90;;;;;;5092646;28;20033;-69
2022/01/21 06:00:43;;;;;;;17.38;2.30;;;1.20;99.90;;;;;;5090947;28;20055;-69
2022/01/21 06:03:10;;;;;;;13.57;2.42;;;1.10;99.90;;;;;;5091958;28;20044;-69
2022/01/21 06:05:36;;;;;;;21.17;2.92;;;;;;;;;;5092361;28;20089;-69
2022/01/21 06:08:03;;;;;;;23.92;2.70;;;1.00;99.90;;;;;;5090829;28;20369;-69
2022/01/21 06:10:29;;;;;;;23.42;3.05;;;1.10;99.90;;;;;;5090469;28;20050;-69
2022/01/21 06:12:56;;;;;;;26.85;3.53;;;1.20;99.90;;;;;;5091888;28;20078;-69
2022/01/21 06:15:23;;;;;;;31.85;3.20;;;1.60;99.90;;;;;;5083672;27;20051;-69
2022/01/21 06:17:49;;;;;;;17.30;2.60;;;;;;;;;;5109540;28;20043;-69
2022/01/21 06:20:52;;;;;;;14.40;2.63;;;1.30;99.90;;;;;;5094659;27;20487;-69
2022/01/21 06:23:18;;;;;;;15.32;2.38;;;1.10;99.90;;;;;;5117753;27;20406;-69
2022/01/21 06:25:44;;;;;;;19.20;2.50;;;1.10;99.90;;;;;;5121047;27;20051;-69
2022/01/21 06:28:10;;;;;;;19.98;2.95;;;1.70;99.90;;;;;;5115328;27;20517;-69
2022/01/21 06:30:36;;;;;;;28.42;2.92;;;1.10;99.90;;;;;;5099537;28;20430;-69
2022/01/21 06:33:03;;;;;;;21.77;2.47;;;1.50;99.90;;;;;;5110504;28;20047;-69
2022/01/21 06:35:29;;;;;;;22.58;2.50;;;1.20;99.90;;;;;;5112067;28;20039;-69
2022/01/21 06:37:55;;;;;;;20.45;2.72;;;;;;;;;;5111865;28;20216;-69
2022/01/21 06:40:22;;;;;;;21.42;3.47;;;1.10;99.90;;;;;;5110437;28;20147;-69
2022/01/21 06:42:49;;;;;;;14.68;2.45;;;1.60;99.90;;;;;;5112428;28;20410;-69
2022/01/21 06:45:15;;;;;;;21.30;3.10;;;0.20;99.90;;;;;;5111922;28;20494;-69
2022/01/21 06:47:41;;;;;;;18.25;2.90;;;;;;;;;;5111944;28;20053;-69
2022/01/21 06:50:07;;;;;;;28.27;2.67;;;1.40;99.90;;;;;;5092422;28;20039;-69
2022/01/21 06:52:33;;;;;;;16.88;2.63;;;1.00;99.90;;;;;;5109656;28;20059;-69
2022/01/21 06:55:00;;;;;;;17.35;2.70;;;1.10;99.90;;;;;;5110131;28;20043;-69
2022/01/21 06:57:27;;;;;;;23.10;2.72;;;0.70;99.90;;;;;;5110812;28;20046;-69
2022/01/21 06:59:53;;;;;;;17.17;2.58;;;1.20;99.90;;;;;;5113488;27;20050;-69
2022/01/21 07:02:19;;;;;;;26.67;3.08;;;;;;;;;;5121915;27;20052;-69
2022/01/21 07:04:49;;;;;;;18.02;2.67;;;1.20;99.90;;;;;;5111451;28;20126;-68
2022/01/21 07:07:16;;;;;;;24.42;2.58;;;1.10;99.90;;;;;;5110050;28;20115;-69
2022/01/21 07:09:43;;;;;;;17.63;2.63;;;1.40;99.90;;;;;;5111354;28;20055;-71
2022/01/21 07:12:09;;;;;;;13.82;2.30;;;1.20;99.90;;;;;;5109681;28;20154;-70
2022/01/21 07:14:34;;;;;;;16.00;2.65;;;1.30;99.90;;;;;;5111323;28;20099;-70
2022/01/21 07:17:00;;;;;;;16.95;2.63;;;1.30;99.90;;;;;;5111287;28;20051;-69
2022/01/21 07:19:26;;;;;;;24.27;2.95;;;1.30;99.90;;;;;;5109942;28;20388;-69
2022/01/21 07:21:52;;;;;;;16.48;2.50;;;1.20;99.90;;;;;;5110689;28;20060;-69
2022/01/21 07:24:19;;;;;;;13.40;2.45;;;1.10;99.90;;;;;;5110818;28;20052;-69
2022/01/21 07:26:44;;;;;;;17.60;2.58;;;2.10;99.90;;;;;;5110883;28;20122;-69
2022/01/21 07:29:10;;;;;;;21.55;2.97;;;1.30;99.90;;;;;;5111234;28;20118;-68
2022/01/21 07:31:36;;;;;;;19.85;2.60;;;1.00;99.90;;;;;;5111464;28;20396;-69
2022/01/21 07:34:05;;;;;;;21.48;2.60;;;;;;;;;;5111310;28;20069;-69
2022/01/21 07:36:32;;;;;;;25.88;2.97;;;;;;;;;;5110913;28;20499;-68
2022/01/21 07:38:58;;;;;;;25.58;3.08;;;;;;;;;;5109661;28;20406;-68
2022/01/21 07:41:25;;;;;;;20.95;3.22;;;1.40;99.90;;;;;;5109769;28;20523;-68
2022/01/21 07:43:52;;;;;;;20.27;2.63;;;1.30;99.90;;;;;;5092647;28;20122;-68
2022/01/21 07:46:19;;;;;;;24.02;2.92;;;1.20;99.90;;;;;;5111329;28;20039;-68
2022/01/21 07:48:45;;;;;;;23.40;3.13;;;0.70;99.90;;;;;;5110985;28;20499;-69
2022/01/21 07:51:10;;;;;;;16.95;2.95;;;0.60;99.90;;;;;;5110782;28;20043;-68
2022/01/21 07:53:37;;;;;;;14.70;3.40;;;1.10;99.90;;;;;;5111020;28;20036;-68
2022/01/21 07:56:03;;;;;;;20.13;2.95;;;2.20;99.90;;;;;;5111423;28;20055;-68
2022/01/21 07:58:30;;;;;;;20.60;2.63;;;-0.20;99.90;;;;;;5111199;28;20046;-68
2022/01/21 08:00:56;;;;;;;21.70;2.72;;;1.20;99.90;;;;;;5111001;28;20139;-68
2022/01/21 08:03:23;;;;;;;21.40;3.28;;;1.50;99.90;;;;;;5111180;28;20537;-69
2022/01/21 08:05:50;;;;;;;20.77;3.33;;;;;;;;;;5110966;28;20044;-69
2022/01/21 08:08:15;;;;;;;20.42;2.88;;;1.00;99.90;;;;;;5109565;28;20431;-68
2022/01/21 08:10:41;;;;;;;16.48;2.53;;;1.10;99.90;;;;;;5109258;28;20165;-68
2022/01/21 08:13:07;;;;;;;15.65;2.70;;;1.40;99.90;;;;;;5108877;28;20415;-68
2022/01/21 08:15:32;;;;;;;26.70;2.90;;;1.50;99.90;;;;;;5109156;28;20088;-68
2022/01/21 08:17:58;;;;;;;18.17;2.95;;;1.60;99.90;;;;;;5109328;28;20043;-69
2022/01/21 08:20:24;;;;;;;17.80;2.72;;;1.40;99.90;;;;;;5110172;28;20535;-68
2022/01/21 08:22:50;;;;;;;20.38;3.17;;;;;;;;;;5111467;28;20118;-68
2022/01/21 08:25:16;;;;;;;14.38;2.40;;;1.00;99.90;;;;;;5096096;28;20035;-68
2022/01/21 08:27:42;;;;;;;20.20;3.33;;;1.40;99.90;;;;;;5114786;28;20043;-68
2022/01/21 08:30:09;;;;;;;21.17;4.10;;;1.70;99.90;;;;;;5113327;28;20055;-70
2022/01/21 08:32:37;;;;;;;21.08;4.30;;;;;;;;;;5113258;28;20406;-68
2022/01/21 08:35:04;;;;;;;20.67;3.55;;;1.90;99.90;;;;;;5114582;28;20047;-68
2022/01/21 08:37:30;;;;;;;21.08;2.80;;;;;;;;;;5114876;28;20059;-68
2022/01/21 08:39:56;;;;;;;19.13;3.28;;;1.50;99.90;;;;;;5113545;28;20050;-68
2022/01/21 08:42:22;;;;;;;15.55;2.75;;;1.80;99.90;;;;;;5113060;28;20122;-68
2022/01/21 08:44:48;;;;;;;18.30;4.28;;;1.80;99.90;;;;;;5114779;28;20050;-68
2022/01/21 08:47:15;;;;;;;18.55;4.50;;;1.80;99.90;;;;;;5112997;28;20252;-68
2022/01/21 08:49:41;;;;;;;16.25;3.08;;;2.00;99.90;;;;;;5113352;28;20130;-69
2022/01/21 08:52:07;;;;;;;14.27;3.67;;;1.80;99.90;;;;;;5114251;28;20127;-69
2022/01/21 08:54:33;;;;;;;13.05;3.00;;;2.00;99.90;;;;;;5114228;28;20040;-69
2022/01/21 08:56:59;;;;;;;19.35;3.00;;;1.40;99.90;;;;;;5112913;28;20108;-69
2022/01/21 08:59:26;;;;;;;15.57;2.83;;;1.90;99.90;;;;;;5114067;28;20047;-69
2022/01/21 09:01:53;;;;;;;21.55;3.50;;;2.10;99.90;;;;;;5112517;28;20100;-69
2022/01/21 09:04:20;;;;;;;20.70;4.03;;;;;;;;;;5112587;28;20055;-69
2022/01/21 09:06:46;;;;;;;21.52;3.22;;;;;;;;;;5113730;28;20075;-69
2022/01/21 09:09:13;;;;;;;16.55;3.95;;;2.40;99.90;;;;;;5112288;28;20093;-69
2022/01/21 09:11:38;;;;;;;18.70;2.90;;;2.70;99.90;;;;;;5114405;28;20372;-70
2022/01/21 09:14:04;;;;;;;19.08;3.15;;;3.50;99.90;;;;;;5112215;28;20058;-69
2022/01/21 09:16:30;;;;;;;18.10;2.70;;;2.40;99.90;;;;;;5112195;28;20055;-69
2022/01/21 09:18:58;;;;;;;18.77;3.25;;;2.90;99.90;;;;;;5111941;28;20045;-69
2022/01/21 09:21:26;;;;;;;20.85;3.63;;;2.80;99.90;;;;;;5113654;28;20043;-69
2022/01/21 09:23:53;;;;;;;20.15;3.03;;;2.70;99.90;;;;;;5113878;28;20050;-69
2022/01/21 09:26:21;;;;;;;14.18;2.90;;;2.80;99.90;;;;;;5113624;28;20047;-69
2022/01/21 09:28:48;;;;;;;18.38;2.95;;;2.60;99.90;;;;;;5095190;28;20088;-69
2022/01/21 09:31:15;;;;;;;14.75;3.00;;;3.30;99.90;;;;;;5111815;28;20062;-69
2022/01/21 09:33:41;;;;;;;18.60;3.50;;;2.80;99.90;;;;;;5111256;28;20051;-69
2022/01/21 09:36:11;;;;;;;18.58;2.85;;;2.70;99.90;;;;;;5111608;28;20047;-69
2022/01/21 09:38:38;;;;;;;13.77;2.63;;;2.70;99.90;;;;;;5094652;28;20502;-68
2022/01/21 09:41:05;;;;;;;15.23;3.20;;;2.90;99.90;;;;;;5112999;28;20123;-68
2022/01/21 09:43:33;;;;;;;13.68;3.10;;;3.30;99.90;;;;;;5111436;28;20052;-68
2022/01/21 09:46:04;;;;;;;17.95;3.40;;;3.10;99.90;;;;;;5112793;28;20036;-68
2022/01/21 09:48:36;;;;;;;18.73;3.42;;;3.30;99.90;;;;;;5113110;28;20047;-68
2022/01/21 09:51:03;;;;;;;21.80;3.20;;;3.20;99.90;;;;;;5112917;28;20426;-68
2022/01/21 09:53:31;;;;;;;21.05;3.55;;;3.00;99.90;;;;;;5112871;28;20054;-68
2022/01/21 09:55:59;;;;;;;22.60;3.80;;;3.50;99.90;;;;;;5111578;28;20044;-68
2022/01/21 09:58:28;;;;;;;17.55;3.35;;;3.00;99.90;;;;;;5112613;28;20100;-68
2022/01/21 10:00:55;;;;;;;26.88;3.92;;;3.20;99.90;;;;;;5111454;28;20060;-68
2022/01/21 10:03:22;;;;;;;21.73;3.95;;;3.30;99.90;;;;;;5112774;28;20050;-68
2022/01/21 10:05:49;;;;;;;18.85;3.63;;;3.30;99.90;;;;;;5111599;28;20101;-68
2022/01/21 10:08:16;;;;;;;19.05;3.65;;;3.20;99.90;;;;;;5094459;28;20058;-68
2022/01/21 10:10:44;;;;;;;20.13;4.15;;;3.50;99.90;;;;;;5111400;28;20042;-68
2022/01/21 10:13:14;;;;;;;23.20;4.47;;;3.60;99.90;;;;;;5112366;28;20081;-68
2022/01/21 10:15:40;;;;;;;27.13;3.80;;;3.40;99.90;;;;;;5111159;28;20052;-68
2022/01/21 10:18:06;;;;;;;26.27;4.30;;;;;;;;;;5111094;28;20127;-68
2022/01/21 10:20:32;;;;;;;24.45;5.97;;;3.30;99.90;;;;;;5111012;28;20502;-68
2022/01/21 10:22:58;;;;;;;30.08;6.90;;;;;;;;;;5112585;28;20039;-68
2022/01/21 10:25:25;;;;;;;36.05;8.23;;;3.80;99.90;;;;;;5111205;28;20055;-68
2022/01/21 10:27:50;;;;;;;27.15;5.47;;;3.50;99.90;;;;;;5094234;28;20043;-68
2022/01/21 10:30:21;;;;;;;25.75;4.25;;;3.90;99.90;;;;;;5112339;28;20048;-68
2022/01/21 10:32:47;;;;;;;24.88;4.20;;;;;;;;;;5111859;28;20483;-68
2022/01/21 10:35:33;;;;;;;20.38;4.18;;;4.00;99.90;;;;;;5110531;28;20537;-68
2022/01/21 10:38:28;;;;;;;16.37;3.67;;;3.90;99.90;;;;;;5112468;28;20044;-68
2022/01/21 10:41:03;;;;;;;22.60;3.70;;;4.80;99.90;;;;;;5112308;27;20043;-68
2022/01/21 10:43:29;;;;;;;29.70;4.28;;;;;;;;;;5111890;28;20064;-68
2022/01/21 10:45:57;;;;;;;24.67;4.15;;;4.40;99.90;;;;;;5111016;28;20100;-68
2022/01/21 10:48:24;;;;;;;24.30;3.90;;;4.40;99.90;;;;;;5110555;28;20122;-68
2022/01/21 10:51:15;;;;;;;17.45;4.25;;;4.60;99.90;;;;;;5111785;28;20047;-68
2022/01/21 10:53:43;;;;;;;24.88;3.78;;;4.60;99.90;;;;;;5110296;28;20039;-68
2022/01/21 10:56:11;;;;;;;24.50;3.72;;;4.40;99.90;;;;;;5111422;28;20081;-68
2022/01/21 10:58:40;;;;;;;26.88;4.30;;;4.40;99.90;;;;;;5110279;28;20100;-68
2022/01/21 11:01:11;;;;;;;22.08;4.13;;;3.40;99.90;;;;;;5110374;28;20039;-68
2022/01/21 11:03:57;;;;;;;28.48;5.15;;;4.30;99.90;;;;;;5110268;28;20082;-68
2022/01/21 11:06:26;;;;;;;26.75;5.18;;;4.30;99.90;;;;;;5110208;28;20039;-68
2022/01/21 11:09:15;;;;;;;25.58;5.55;;;4.20;99.90;;;;;;5111264;28;20077;-68
2022/01/21 11:11:41;;;;;;;28.75;7.03;;;4.00;99.90;;;;;;5107215;27;20505;-68
2022/01/21 11:14:12;;;;;;;23.15;4.28;;;5.00;99.90;;;;;;5109809;27;20054;-68
2022/01/21 11:16:40;;;;;;;27.50;4.40;;;4.20;99.90;;;;;;5109164;28;20131;-68
2022/01/21 11:19:08;;;;;;;28.20;4.50;;;;;;;;;;5123291;27;20072;-68
2022/01/21 11:21:53;;;;;;;22.15;4.05;;;4.80;99.90;;;;;;5122748;27;20487;-68
2022/01/21 11:24:23;;;;;;;22.92;4.38;;;4.80;99.90;;;;;;5097831;28;20557;-68
2022/01/21 11:27:14;;;;;;;20.50;4.07;;;4.60;99.90;;;;;;5129261;27;20430;-68
2022/01/21 11:29:43;;;;;;;18.75;4.22;;;4.70;99.90;;;;;;5131759;27;20399;-68
2022/01/21 11:32:09;;;;;;;24.52;4.53;;;4.70;99.90;;;;;;5129740;27;20049;-68
2022/01/21 11:34:35;;;;;;;19.92;4.25;;;4.70;99.90;;;;;;5125835;27;20167;-68
2022/01/21 11:37:03;;;;;;;23.60;4.00;;;4.90;99.90;;;;;;5108974;28;20047;-68
2022/01/21 11:39:30;;;;;;;27.63;4.45;;;5.00;99.90;;;;;;5108711;28;20389;-68
2022/01/21 11:41:58;;;;;;;31.85;4.80;;;5.00;99.90;;;;;;5110374;28;20122;-68
2022/01/21 11:44:28;;;;;;;23.73;3.78;;;4.90;99.90;;;;;;5109888;27;20523;-68
2022/01/21 11:47:02;;;;;;;28.52;4.47;;;4.80;99.90;;;;;;5110222;28;20047;-68
2022/01/21 11:49:30;;;;;;;31.67;4.38;;;5.10;99.90;;;;;;5109923;27;20439;-68
2022/01/21 11:52:08;;;;;;;27.75;4.30;;;5.20;99.90;;;;;;5108871;28;20047;-68
2022/01/21 11:54:36;;;;;;;22.33;4.38;;;5.40;99.90;;;;;;5108436;28;20058;-68
2022/01/21 11:57:05;;;;;;;26.23;4.43;;;5.00;99.90;;;;;;5109728;28;20115;-68
2022/01/21 11:59:36;;;;;;;28.13;4.55;;;5.30;99.90;;;;;;5091317;28;20470;-68
2022/01/21 12:02:26;;;;;;;30.08;5.05;;;5.00;99.90;;;;;;5108813;28;20052;-68
2022/01/21 12:04:54;;;;;;;24.00;4.50;;;5.30;99.90;;;;;;5108736;28;20115;-68
2022/01/21 12:07:37;;;;;;;23.58;4.75;;;5.30;99.90;;;;;;5109719;28;20039;-68
2022/01/21 12:10:10;;;;;;;26.88;4.35;;;5.50;99.90;;;;;;5108534;28;20055;-68
2022/01/21 12:12:50;;;;;;;35.80;5.45;;;5.40;99.90;;;;;;5109274;28;20048;-68
2022/01/21 12:20:48;;;;;;;29.00;4.55;;;5.60;99.90;;;;;;5110094;27;20039;-68
2022/01/21 12:23:25;;;;;;;38.63;4.93;;;5.80;99.90;;;;;;5109637;28;20050;-68
2022/01/21 12:26:28;;;;;;;27.08;4.65;;;5.50;99.90;;;;;;5099672;27;20134;-68
2022/01/21 12:28:59;;;;;;;29.00;4.75;;;5.00;99.90;;;;;;5088270;28;20060;-68
2022/01/21 12:31:42;;;;;;;34.28;5.38;;;5.90;99.90;;;;;;5087607;28;20056;-68
2022/01/21 12:34:12;;;;;;;26.58;4.95;;;5.50;99.90;;;;;;5089413;28;20120;-68
2022/01/21 12:36:51;;;;;;;27.80;5.03;;;6.00;99.90;;;;;;5089381;28;20069;-68
2022/01/21 12:39:42;;;;;;;30.30;4.72;;;5.70;99.90;;;;;;5070776;28;20052;-68
2022/01/21 12:42:35;;;;;;;28.95;4.75;;;5.60;99.90;;;;;;5087897;28;20079;-68
2022/01/21 12:45:06;;;;;;;27.35;4.60;;;5.30;99.90;;;;;;5089123;28;20044;-68
2022/01/21 12:47:40;;;;;;;29.45;5.00;;;6.00;99.90;;;;;;5088553;28;20048;-68
2022/01/21 12:50:06;;;;;;;33.67;4.97;;;;;;;;;;5071180;28;20055;-68
2022/01/21 12:58:11;;;;;;;24.00;4.32;;;6.00;99.90;;;;;;5087703;28;20493;-68
2022/01/21 13:00:39;;;;;;;19.33;3.42;;;5.70;99.90;;;;;;5089187;28;20048;-69
2022/01/21 13:03:14;;;;;;;24.95;3.72;;;5.90;99.90;;;;;;5089317;28;20075;-69
2022/01/21 13:05:44;;;;;;;24.77;3.83;;;6.00;99.90;;;;;;5087863;28;20696;-69
2022/01/21 13:08:10;;;;;;;18.52;4.28;;;;;;;;;;5099884;28;20483;-69
2022/01/21 13:10:38;;;;;;;24.92;4.05;;;6.00;99.90;;;;;;5110761;27;20058;-69
2022/01/21 13:15:37;;;;;;;27.95;3.72;;;6.30;99.90;;;;;;5112695;27;20134;-70
2022/01/21 13:18:03;;;;;;;19.02;3.50;;;;;;;;;;5111784;28;20050;-69
2022/01/21 13:20:35;;;;;;;20.90;3.60;;;6.10;99.90;;;;;;5111293;28;20051;-69
2022/01/21 13:23:01;;;;;;;22.02;3.45;;;6.30;99.90;;;;;;5110996;28;20056;-69
2022/01/21 13:25:31;;;;;;;20.67;3.55;;;6.20;99.90;;;;;;5112843;28;20173;-70
2022/01/21 13:27:58;;;;;;;18.25;3.55;;;6.30;99.90;;;;;;5113294;27;20482;-69
2022/01/21 13:30:28;;;;;;;17.45;3.95;;;6.40;99.90;;;;;;5112790;28;20047;-69
2022/01/21 13:33:01;;;;;;;17.88;2.88;;;6.20;99.90;;;;;;5094588;28;20460;-69
2022/01/21 13:35:28;;;;;;;18.38;3.60;;;6.30;99.90;;;;;;5111877;28;20445;-69
2022/01/21 13:38:18;;;;;;;18.35;3.00;;;6.30;99.90;;;;;;5112954;27;20507;-70
2022/01/21 13:40:57;;;;;;;19.73;3.33;;;6.30;99.90;;;;;;5111693;28;20097;-69
2022/01/21 13:43:26;;;;;;;23.05;3.42;;;6.30;99.90;;;;;;5112381;27;20039;-69
2022/01/21 13:46:09;;;;;;;16.85;3.00;;;6.40;99.90;;;;;;5111318;28;20043;-69
2022/01/21 13:48:36;;;;;;;17.27;3.00;;;6.50;99.90;;;;;;5110822;28;20055;-69
2022/01/21 13:51:04;;;;;;;15.95;3.03;;;6.00;99.90;;;;;;5110863;28;20126;-69
2022/01/21 13:53:30;;;;;;;19.95;3.50;;;7.00;99.90;;;;;;5112011;27;20043;-69
2022/01/21 13:56:05;;;;;;;20.05;3.55;;;6.50;99.90;;;;;;5112836;28;20146;-70
2022/01/21 13:58:33;;;;;;;21.45;3.85;;;7.00;99.90;;;;;;5111081;28;20052;-69
2022/01/21 14:01:09;;;;;;;26.48;3.92;;;6.40;99.90;;;;;;5111076;28;20059;-70
2022/01/21 14:03:40;;;;;;;26.92;4.07;;;6.10;99.90;;;;;;5112141;27;20075;-70
2022/01/21 14:06:15;;;;;;;26.92;4.53;;;5.90;99.90;;;;;;5112038;28;20031;-69
2022/01/21 14:08:46;;;;;;;24.60;3.65;;;6.40;99.90;;;;;;5110728;28;20051;-70
2022/01/21 14:11:26;;;;;;;24.42;3.65;;;6.50;99.90;;;;;;5110739;28;20057;-70